createdAt,value
2018-01-20T00:01:07.670Z,454.83
2018-01-20T00:03:13.638Z,441.93
2018-01-20T00:05:20.179Z,416.73
2018-01-20T00:07:26.492Z,502.17
2018-01-20T00:09:41.265Z,611.13
2018-01-20T00:12:02.318Z,772.40
2018-01-20T00:14:08.400Z,546.17
2018-01-20T00:16:14.759Z,484.80
2018-01-20T00:18:20.869Z,492.63
2018-01-20T00:20:27.773Z,462.97
2018-01-20T00:24:47.982Z,445.53
2018-01-20T00:26:54.777Z,382.57
2018-01-20T00:29:01.152Z,330.43
2018-01-20T00:31:07.738Z,498.00
2018-01-20T00:33:14.684Z,435.43
2018-01-20T00:35:20.652Z,339.60
2018-01-20T00:37:26.575Z,295.03
2018-01-20T00:39:32.724Z,308.97
2018-01-20T00:41:38.349Z,364.27
2018-01-20T00:43:44.098Z,517.83
2018-01-20T00:45:50.117Z,583.70
2018-01-20T00:47:55.924Z,589.53
2018-01-20T00:50:03.328Z,577.77
2018-01-20T00:52:09.199Z,475.50
2018-01-20T00:54:16.747Z,440.07
2018-01-20T00:56:22.320Z,396.50
2018-01-20T00:58:28.211Z,357.67
2018-01-20T01:03:44.103Z,303.60
2018-01-20T01:05:49.972Z,268.83
2018-01-20T01:07:55.590Z,220.53
2018-01-20T01:10:01.326Z,361.07
2018-01-20T01:12:07.029Z,517.43
2018-01-20T01:14:12.711Z,513.13
2018-01-20T01:16:18.540Z,595.60
2018-01-20T01:18:24.107Z,436.90
2018-01-20T01:20:29.704Z,569.33
2018-01-20T01:22:35.293Z,959.53
2018-01-20T01:24:40.973Z,376.10
2018-01-20T01:26:46.611Z,287.43
2018-01-20T01:28:52.473Z,242.13
2018-01-20T01:30:57.990Z,250.43
2018-01-20T01:33:03.604Z,202.97
2018-01-20T01:35:09.163Z,193.13
2018-01-20T01:37:15.353Z,172.40
2018-01-20T01:39:20.925Z,154.20
2018-01-20T01:41:26.600Z,143.67
2018-01-20T01:43:32.480Z,136.10
2018-01-20T01:45:38.004Z,131.27
2018-01-20T01:47:43.617Z,92.77
2018-01-20T01:49:49.468Z,101.47
2018-01-20T01:51:55.066Z,88.13
2018-01-20T01:54:00.721Z,69.63
2018-01-20T01:56:06.710Z,73.67
2018-01-20T01:58:12.208Z,96.97
2018-01-20T02:00:17.900Z,66.37
2018-01-20T02:02:23.427Z,68.50
2018-01-20T02:04:28.946Z,77.73
2018-01-20T02:06:34.392Z,67.47
2018-01-20T02:08:39.978Z,61.23
2018-01-20T02:10:45.670Z,64.17
2018-01-20T02:12:52.939Z,56.43
2018-01-20T02:14:58.701Z,48.00
2018-01-20T02:17:05.259Z,38.20
2018-01-20T02:19:11.227Z,40.50
2018-01-20T02:21:16.824Z,35.87
2018-01-20T02:23:22.299Z,25.80
2018-01-20T02:25:28.436Z,32.47
2018-01-20T02:27:33.985Z,32.73
2018-01-20T02:29:40.214Z,31.80
2018-01-20T02:31:46.220Z,24.50
2018-01-20T02:33:51.792Z,20.73
2018-01-20T02:35:57.324Z,23.77
2018-01-20T02:38:03.642Z,15.60
2018-01-20T02:40:09.262Z,19.07
2018-01-20T02:42:15.012Z,19.17
2018-01-20T02:44:20.982Z,21.00
2018-01-20T02:46:26.636Z,18.50
2018-01-20T02:48:32.221Z,13.97
2018-01-20T02:50:38.309Z,12.57
2018-01-20T02:52:44.022Z,11.60
2018-01-20T02:54:49.532Z,13.70
2018-01-20T02:56:56.666Z,14.70
2018-01-20T02:59:03.490Z,9.73
2018-01-20T03:01:09.521Z,9.00
2018-01-20T03:03:15.016Z,7.57
2018-01-20T03:05:20.806Z,6.60
2018-01-20T03:07:26.520Z,13.63
2018-01-20T03:09:32.129Z,31.80
2018-01-20T03:11:37.804Z,54.70
2018-01-20T03:13:43.720Z,73.87
2018-01-20T03:15:49.466Z,82.40
2018-01-20T03:17:55.078Z,55.00
2018-01-20T03:20:01.388Z,44.23
2018-01-20T03:22:07.292Z,40.93
2018-01-20T03:24:12.945Z,42.50
2018-01-20T03:26:19.537Z,37.80
2018-01-20T03:28:25.508Z,35.70
2018-01-20T03:30:31.005Z,24.13
2018-01-20T03:32:36.450Z,14.40
2018-01-20T03:34:42.370Z,14.20
2018-01-20T03:36:47.942Z,12.83
2018-01-20T03:38:53.693Z,8.67
2018-01-20T03:43:56.085Z,6.73
2018-01-20T03:46:02.186Z,8.10
2018-01-20T03:48:08.299Z,5.43
2018-01-20T03:50:14.113Z,5.90
2018-01-20T03:52:20.707Z,6.07
2018-01-20T03:54:26.716Z,77.07
2018-01-20T03:56:33.003Z,78.73
2018-01-20T03:58:38.847Z,103.70
2018-01-20T04:00:46.047Z,143.80
2018-01-20T04:02:52.387Z,160.03
2018-01-20T04:05:11.702Z,124.17
2018-01-20T04:07:18.080Z,77.20
2018-01-20T04:09:24.516Z,67.47
2018-01-20T04:11:30.638Z,49.87
2018-01-20T04:13:36.900Z,32.67
2018-01-20T04:15:42.462Z,38.10
2018-01-20T04:17:48.094Z,32.80
2018-01-20T04:19:54.014Z,38.30
2018-01-20T04:21:59.598Z,26.03
2018-01-20T04:24:05.160Z,30.23
2018-01-20T04:26:11.100Z,25.57
2018-01-20T04:28:16.753Z,23.10
2018-01-20T04:30:22.293Z,21.37
2018-01-20T04:32:28.352Z,19.83
2018-01-20T04:34:33.925Z,17.63
2018-01-20T04:36:39.523Z,12.50
2018-01-20T04:38:45.144Z,12.17
2018-01-20T04:40:51.123Z,11.30
2018-01-20T04:42:56.737Z,11.23
2018-01-20T04:45:02.433Z,10.10
2018-01-20T04:47:08.069Z,10.00
2018-01-20T04:49:13.571Z,9.33
2018-01-20T04:51:19.313Z,7.93
2018-01-20T04:53:25.192Z,7.17
2018-01-20T04:55:30.771Z,15.30
2018-01-20T04:57:36.344Z,5.20
2018-01-20T04:59:42.199Z,5.40
2018-01-20T05:01:47.827Z,4.73
2018-01-20T05:03:53.397Z,5.30
2018-01-20T05:05:59.313Z,6.80
2018-01-20T05:08:04.943Z,6.27
2018-01-20T05:10:10.574Z,4.57
2018-01-20T05:12:16.273Z,4.43
2018-01-20T05:14:22.311Z,4.90
2018-01-20T05:16:27.787Z,4.60
2018-01-20T05:18:33.426Z,5.17
2018-01-20T05:20:39.511Z,4.07
2018-01-20T05:22:45.185Z,4.60
2018-01-20T05:24:50.734Z,3.80
2018-01-20T05:26:56.323Z,4.10
2018-01-20T05:29:02.501Z,5.50
2018-01-20T05:31:08.188Z,3.53
2018-01-20T05:33:14.273Z,3.97
2018-01-20T05:35:19.792Z,4.90
2018-01-20T05:37:25.321Z,3.33
2018-01-20T05:39:31.267Z,3.93
2018-01-20T05:41:37.823Z,3.73
2018-01-20T05:43:43.449Z,3.80
2018-01-20T05:45:49.102Z,3.77
2018-01-20T05:47:56.591Z,4.83
2018-01-20T05:50:03.163Z,2.80
2018-01-20T05:52:09.180Z,2.70
2018-01-20T05:54:15.214Z,3.10
2018-01-20T05:56:20.878Z,4.10
2018-01-20T05:58:26.584Z,2.93
2018-01-20T06:00:32.290Z,4.10
2018-01-20T06:02:38.384Z,3.43
2018-01-20T06:04:48.476Z,3.00
2018-01-20T06:06:56.940Z,2.87
2018-01-20T06:09:08.409Z,2.90
2018-01-20T06:11:20.124Z,2.87
2018-01-20T06:16:24.219Z,2.40
2018-01-20T06:18:33.458Z,4.60
2018-01-20T06:20:40.323Z,3.40
2018-01-20T06:22:51.093Z,2.63
2018-01-20T06:24:57.084Z,3.27
2018-01-20T06:27:04.717Z,4.90
2018-01-20T06:29:17.551Z,2.60
2018-01-20T06:31:36.448Z,2.97
2018-01-20T06:33:43.120Z,4.03
2018-01-20T06:35:49.158Z,3.33
2018-01-20T06:37:58.356Z,3.77
2018-01-20T06:40:04.776Z,2.40
2018-01-20T06:42:13.831Z,3.20
2018-01-20T06:44:24.253Z,2.37
2018-01-20T06:46:30.800Z,3.53
2018-01-20T06:48:36.749Z,6.53
2018-01-20T06:50:42.305Z,2.63
2018-01-20T06:52:48.048Z,4.70
2018-01-20T06:54:55.988Z,3.63
2018-01-20T06:57:02.045Z,3.30
2018-01-20T06:59:09.180Z,2.10
2018-01-20T07:01:15.415Z,2.77
2018-01-20T07:03:21.398Z,2.80
2018-01-20T07:05:30.134Z,4.47
2018-01-20T07:07:36.192Z,3.43
2018-01-20T07:09:41.988Z,3.50
2018-01-20T07:11:47.668Z,3.13
2018-01-20T07:13:55.147Z,2.53
2018-01-20T07:16:01.158Z,3.03
2018-01-20T07:18:06.920Z,2.73
2018-01-20T07:20:14.102Z,3.07
2018-01-20T07:22:26.108Z,2.83
2018-01-20T07:24:33.173Z,2.83
2018-01-20T07:26:41.825Z,3.23
2018-01-20T07:28:49.857Z,6.73
2018-01-20T07:30:58.923Z,3.17
2018-01-20T07:33:06.036Z,5.43
2018-01-20T07:35:15.028Z,4.13
2018-01-20T07:37:24.128Z,4.47
2018-01-20T07:39:30.993Z,2.60
2018-01-20T07:41:38.164Z,2.83
2018-01-20T07:43:44.857Z,2.70
2018-01-20T07:45:50.825Z,2.50
2018-01-20T07:47:57.277Z,6.20
2018-01-20T07:50:06.464Z,2.40
2018-01-20T07:52:13.913Z,2.63
2018-01-20T07:54:21.883Z,2.27
2018-01-20T07:56:28.471Z,4.93
2018-01-20T07:58:36.023Z,1.97
2018-01-20T08:03:06.773Z,3.77
2018-01-20T08:05:16.069Z,3.10
2018-01-20T08:07:24.113Z,2.40
2018-01-20T08:09:29.824Z,4.90
2018-01-20T08:11:37.302Z,3.23
2018-01-20T08:13:44.769Z,4.50
2018-01-20T08:15:51.461Z,2.90
2018-01-20T08:17:58.021Z,2.13
2018-01-20T08:20:06.521Z,3.27
2018-01-20T08:22:13.524Z,4.20
2018-01-20T08:24:20.665Z,2.40
2018-01-20T08:26:30.883Z,2.57
2018-01-20T08:28:38.482Z,19.33
2018-01-20T08:30:46.273Z,18.73
2018-01-20T08:32:52.548Z,80.87
2018-01-20T08:34:59.369Z,67.97
2018-01-20T08:37:05.657Z,82.20
2018-01-20T08:39:12.085Z,76.50
2018-01-20T08:41:17.874Z,75.43
2018-01-20T08:43:23.817Z,69.93
2018-01-20T08:45:31.829Z,57.90
2018-01-20T08:47:39.175Z,52.20
2018-01-20T08:49:46.572Z,47.63
2018-01-20T08:51:52.748Z,42.87
2018-01-20T08:53:58.423Z,38.77
2018-01-20T08:56:04.416Z,32.27
2018-01-20T08:58:11.847Z,30.63
2018-01-20T09:00:19.998Z,31.30
2018-01-20T09:02:26.143Z,29.67
2018-01-20T09:04:32.941Z,19.73
2018-01-20T09:06:39.119Z,22.93
2018-01-20T09:08:45.286Z,15.40
2018-01-20T09:10:51.887Z,12.67
2018-01-20T09:12:58.228Z,15.23
2018-01-20T09:15:05.462Z,14.40
2018-01-20T09:17:12.474Z,11.67
2018-01-20T09:19:20.507Z,11.10
2018-01-20T09:21:28.823Z,9.07
2018-01-20T09:23:36.493Z,8.10
2018-01-20T09:25:43.470Z,6.40
2018-01-20T09:27:50.348Z,8.57
2018-01-20T09:29:58.988Z,167.33
2018-01-20T09:32:07.027Z,120.13
2018-01-20T09:34:13.089Z,347.23
2018-01-20T09:36:21.368Z,434.90
2018-01-20T09:40:38.506Z,312.47
2018-01-20T09:42:45.437Z,239.07
2018-01-20T09:44:51.195Z,260.00
2018-01-20T09:46:57.545Z,216.70
2018-01-20T09:49:03.214Z,219.70
2018-01-20T09:51:10.466Z,188.77
2018-01-20T09:53:16.701Z,172.07
2018-01-20T09:55:24.066Z,138.37
2018-01-20T09:57:32.176Z,148.00
2018-01-20T09:59:39.454Z,127.17
2018-01-20T10:01:46.413Z,94.17
2018-01-20T10:03:53.112Z,92.83
2018-01-20T10:05:59.192Z,84.00
2018-01-20T10:08:05.766Z,67.77
2018-01-20T10:10:13.982Z,62.70
2018-01-20T10:12:20.031Z,66.43
2018-01-20T10:14:26.140Z,55.60
2018-01-20T10:16:32.145Z,43.37
2018-01-20T10:18:38.151Z,41.50
2018-01-20T10:20:44.112Z,42.23
2018-01-20T10:22:50.030Z,40.33
2018-01-20T10:24:56.446Z,30.20
2018-01-20T10:27:02.713Z,27.70
2018-01-20T10:29:09.967Z,23.40
2018-01-20T10:31:29.514Z,150.50
2018-01-20T10:38:42.991Z,328.80
2018-01-20T10:41:05.175Z,327.90
2018-01-20T10:43:12.379Z,330.67
2018-01-20T10:45:51.910Z,236.97
2018-01-20T10:50:38.639Z,223.57
2018-01-20T10:55:21.051Z,140.20
2018-01-20T10:57:30.401Z,124.13
2018-01-20T10:59:43.269Z,108.20
2018-01-20T11:01:57.802Z,118.87
2018-01-20T11:04:17.093Z,95.10
2018-01-20T11:06:26.122Z,67.77
2018-01-20T11:08:39.635Z,80.33
2018-01-20T11:10:52.230Z,63.27
2018-01-20T11:13:02.871Z,63.83
2018-01-20T11:15:17.164Z,54.37
2018-01-20T11:17:25.842Z,54.00
2018-01-20T11:19:35.184Z,47.47
2018-01-20T11:21:43.563Z,37.17
2018-01-20T11:23:49.650Z,42.60
2018-01-20T11:25:56.136Z,29.90
2018-01-20T11:28:02.470Z,37.80
2018-01-20T11:30:11.460Z,26.00
2018-01-20T11:32:17.767Z,22.03
2018-01-20T11:34:24.328Z,23.80
2018-01-20T11:36:30.954Z,19.33
2018-01-20T11:38:37.613Z,19.50
2018-01-20T11:40:46.408Z,18.70
2018-01-20T11:42:54.120Z,17.00
2018-01-20T11:45:01.893Z,18.80
2018-01-20T11:47:08.992Z,12.70
2018-01-20T11:49:17.227Z,9.23
2018-01-20T11:51:23.414Z,13.97
2018-01-20T11:53:34.797Z,9.00
2018-01-20T11:55:41.602Z,10.30
2018-01-20T11:57:48.424Z,9.93
2018-01-20T11:59:54.338Z,7.60
2018-01-20T12:02:01.584Z,6.30
2018-01-20T12:04:08.022Z,8.03
2018-01-20T12:06:13.991Z,8.47
2018-01-20T12:08:20.601Z,4.97
2018-01-20T12:10:29.094Z,5.27
2018-01-20T12:12:35.426Z,6.60
2018-01-20T12:14:45.067Z,5.40
2018-01-20T12:16:54.384Z,4.40
2018-01-20T12:19:02.210Z,9.77
2018-01-20T12:21:09.205Z,6.07
2018-01-20T12:23:15.188Z,14.23
2018-01-20T12:25:22.354Z,13.27
2018-01-20T12:27:28.898Z,29.63
2018-01-20T12:29:38.951Z,170.53
2018-01-20T12:31:46.534Z,294.23
2018-01-20T12:33:55.601Z,412.03
2018-01-20T12:36:01.569Z,315.23
2018-01-20T12:38:07.817Z,308.07
2018-01-20T12:40:14.511Z,217.10
2018-01-20T12:42:20.741Z,265.50
2018-01-20T12:44:26.738Z,180.70
2018-01-20T12:46:32.595Z,137.50
2018-01-20T12:48:38.644Z,190.30
2018-01-20T12:50:44.904Z,348.13
2018-01-20T12:52:51.059Z,343.90
2018-01-20T12:54:56.902Z,389.67
2018-01-20T12:57:03.207Z,415.93
2018-01-20T12:59:09.813Z,298.23
2018-01-20T13:01:15.892Z,338.23
2018-01-20T13:03:21.984Z,308.23
2018-01-20T13:05:35.723Z,272.20
2018-01-20T13:07:42.407Z,167.87
2018-01-20T13:09:53.225Z,114.20
2018-01-20T13:12:00.093Z,111.57
2018-01-20T13:14:07.917Z,70.20
2018-01-20T13:16:14.222Z,78.60
2018-01-20T13:18:21.193Z,91.30
2018-01-20T13:20:27.404Z,89.20
2018-01-20T13:22:34.761Z,62.53
2018-01-20T13:24:41.128Z,53.27
2018-01-20T13:26:49.332Z,50.00
2018-01-20T13:28:55.555Z,46.03
2018-01-20T13:31:01.887Z,41.83
2018-01-20T13:33:08.241Z,36.13
2018-01-20T13:35:14.195Z,35.57
2018-01-20T13:37:20.846Z,27.43
2018-01-20T13:39:27.129Z,23.13
2018-01-20T13:41:33.248Z,22.77
2018-01-20T13:43:40.033Z,20.53
2018-01-20T13:45:46.207Z,100.70
2018-01-20T13:47:52.175Z,421.67
2018-01-20T13:50:00.641Z,485.93
2018-01-20T13:52:07.144Z,307.30
2018-01-20T13:54:13.739Z,316.90
2018-01-20T13:56:20.328Z,256.53
2018-01-20T13:58:26.031Z,210.47
2018-01-20T14:00:31.823Z,194.97
2018-01-20T14:02:37.701Z,153.57
2018-01-20T14:04:44.360Z,136.77
2018-01-20T14:06:50.792Z,130.00
2018-01-20T14:08:58.866Z,103.30
2018-01-20T14:11:06.502Z,86.57
2018-01-20T14:13:12.393Z,78.87
2018-01-20T14:15:18.195Z,109.60
2018-01-20T14:17:24.357Z,542.07
2018-01-20T14:19:31.236Z,726.23
2018-01-20T14:21:38.956Z,497.07
2018-01-20T14:23:45.020Z,386.23
2018-01-20T14:25:51.692Z,284.03
2018-01-20T14:27:58.002Z,208.47
2018-01-20T14:30:07.090Z,191.00
2018-01-20T14:32:13.784Z,193.73
2018-01-20T14:34:30.755Z,163.60
2018-01-20T14:36:36.882Z,146.67
2018-01-20T14:38:43.135Z,122.30
2018-01-20T14:40:49.389Z,109.20
2018-01-20T14:42:55.712Z,83.20
2018-01-20T14:45:01.880Z,70.10
2018-01-20T14:47:07.762Z,71.60
2018-01-20T14:49:13.378Z,63.30
2018-01-20T14:51:19.173Z,59.07
2018-01-20T14:53:25.099Z,56.27
2018-01-20T14:55:30.903Z,44.70
2018-01-20T14:57:36.920Z,39.60
2018-01-20T14:59:42.468Z,40.30
2018-01-20T15:01:48.090Z,36.40
2018-01-20T15:03:53.786Z,27.00
2018-01-20T15:05:59.902Z,30.80
2018-01-20T15:08:05.743Z,29.83
2018-01-20T15:10:13.692Z,26.87
2018-01-20T15:12:20.275Z,25.63
2018-01-20T15:14:26.166Z,23.67
2018-01-20T15:16:31.793Z,13.00
2018-01-20T15:18:37.707Z,18.50
2018-01-20T15:20:43.254Z,16.00
2018-01-20T15:22:49.184Z,16.17
2018-01-20T15:24:55.195Z,12.33
2018-01-20T15:27:00.991Z,11.70
2018-01-20T15:29:06.698Z,10.77
2018-01-20T15:31:12.999Z,9.87
2018-01-20T15:33:18.789Z,8.73
2018-01-20T15:35:24.672Z,8.87
2018-01-20T15:37:31.006Z,8.97
2018-01-20T15:39:36.830Z,8.87
2018-01-20T15:41:42.574Z,7.00
2018-01-20T15:43:48.338Z,6.57
2018-01-20T15:45:54.394Z,8.00
2018-01-20T15:48:00.247Z,8.87
2018-01-20T15:50:06.732Z,5.60
2018-01-20T15:52:14.473Z,5.57
2018-01-20T15:54:20.237Z,5.07
2018-01-20T15:56:26.527Z,5.20
2018-01-20T15:58:34.900Z,4.90
2018-01-20T16:00:41.140Z,4.73
2018-01-20T16:02:47.171Z,4.73
2018-01-20T16:04:52.914Z,5.23
2018-01-20T16:06:59.418Z,4.73
2018-01-20T16:09:05.950Z,5.30
2018-01-20T16:11:13.127Z,3.87
2018-01-20T16:13:19.165Z,3.67
2018-01-20T16:15:24.931Z,3.83
2018-01-20T16:19:48.587Z,4.33
2018-01-20T16:22:00.439Z,3.70
2018-01-20T16:24:08.339Z,4.27
2018-01-20T16:26:14.427Z,3.30
2018-01-20T16:28:21.156Z,5.57
2018-01-20T16:30:27.047Z,3.67
2018-01-20T16:32:34.196Z,2.77
2018-01-20T16:34:40.766Z,2.90
2018-01-20T16:36:48.225Z,2.90
2018-01-20T16:38:54.427Z,3.00
2018-01-20T16:41:00.357Z,3.60
2018-01-20T16:43:06.164Z,4.60
2018-01-20T16:45:15.528Z,3.10
2018-01-20T16:47:21.824Z,5.00
2018-01-20T16:49:30.069Z,3.07
2018-01-20T16:51:36.345Z,3.03
2018-01-20T16:53:47.064Z,3.00
2018-01-20T16:55:54.193Z,2.80
2018-01-20T16:58:01.917Z,4.97
2018-01-20T17:03:03.495Z,3.40
2018-01-20T17:05:12.099Z,3.90
2018-01-20T17:07:18.370Z,3.80
2018-01-20T17:09:25.422Z,2.77
2018-01-20T17:11:34.666Z,3.33
2018-01-20T17:13:41.890Z,3.17
2018-01-20T17:15:48.537Z,56.20
2018-01-20T17:17:54.469Z,281.40
2018-01-20T17:20:02.471Z,433.70
2018-01-20T17:22:08.751Z,387.10
2018-01-20T17:24:15.218Z,415.10
2018-01-20T17:26:21.390Z,265.33
2018-01-20T17:28:28.729Z,186.40
2018-01-20T17:30:34.859Z,156.00
2018-01-20T17:32:40.742Z,117.87
2018-01-20T17:34:46.468Z,93.93
2018-01-20T17:36:52.862Z,72.23
2018-01-20T17:38:58.814Z,69.30
2018-01-20T17:41:05.098Z,62.97
2018-01-20T17:43:11.818Z,61.13
2018-01-20T17:45:18.148Z,55.67
2018-01-20T17:47:24.482Z,57.77
2018-01-20T17:49:30.521Z,98.43
2018-01-20T17:51:36.480Z,238.53
2018-01-20T17:53:44.187Z,583.73
2018-01-20T17:55:51.437Z,562.80
2018-01-20T17:57:57.690Z,449.60
2018-01-20T18:00:06.110Z,399.40
2018-01-20T18:02:12.106Z,348.87
2018-01-20T18:04:18.139Z,291.60
2018-01-20T18:06:24.537Z,267.17
2018-01-20T18:08:30.770Z,251.87
2018-01-20T18:10:36.819Z,239.37
2018-01-20T18:12:43.584Z,217.30
2018-01-20T18:14:50.692Z,208.87
2018-01-20T18:16:57.248Z,187.97
2018-01-20T18:19:03.851Z,173.63
2018-01-20T18:21:10.197Z,168.40
2018-01-20T18:23:19.497Z,157.77
2018-01-20T18:25:25.775Z,142.57
2018-01-20T18:27:32.178Z,141.80
2018-01-20T18:29:39.102Z,130.50
2018-01-20T18:31:45.116Z,119.77
2018-01-20T18:33:51.416Z,109.83
2018-01-20T18:35:58.706Z,108.47
2018-01-20T18:39:08.819Z,98.63
2018-01-20T18:41:18.081Z,85.60
2018-01-20T18:43:23.908Z,83.70
2018-01-20T18:45:32.668Z,74.53
2018-01-20T18:47:38.903Z,67.33
2018-01-20T18:49:44.865Z,70.50
2018-01-20T18:51:51.327Z,65.57
2018-01-20T18:53:57.404Z,61.53
2018-01-20T18:56:03.339Z,57.67
2018-01-20T18:58:10.737Z,55.87
2018-01-20T19:00:18.714Z,51.27
2018-01-20T19:02:24.990Z,49.70
2018-01-20T19:04:33.540Z,46.67
2018-01-20T19:06:39.753Z,43.13
2018-01-20T19:08:46.409Z,39.83
2018-01-20T19:10:52.584Z,38.33
2018-01-20T19:12:59.084Z,38.60
2018-01-20T19:15:06.196Z,33.50
2018-01-20T19:17:15.284Z,118.77
2018-01-20T19:19:26.036Z,800.33
2018-01-20T19:21:33.910Z,606.97
2018-01-20T19:23:40.665Z,436.40
2018-01-20T19:25:47.913Z,319.20
2018-01-20T19:27:55.499Z,283.67
2018-01-20T19:30:07.966Z,257.23
2018-01-20T19:32:16.601Z,244.27
2018-01-20T19:34:32.320Z,228.77
2018-01-20T19:36:39.272Z,214.77
2018-01-20T19:38:47.238Z,201.67
2018-01-20T19:40:53.482Z,180.60
2018-01-20T19:43:00.308Z,162.50
2018-01-20T19:45:08.993Z,160.83
2018-01-20T19:47:15.259Z,142.80
2018-01-20T19:49:21.517Z,135.50
2018-01-20T19:51:27.884Z,127.90
2018-01-20T19:53:36.132Z,123.33
2018-01-20T19:55:42.602Z,113.17
2018-01-20T19:57:48.922Z,99.83
2018-01-20T19:59:55.485Z,94.97
2018-01-20T20:02:19.884Z,87.53
2018-01-20T20:04:25.735Z,81.20
2018-01-20T20:06:31.475Z,75.53
2018-01-20T20:08:37.935Z,77.07
2018-01-20T20:10:43.702Z,66.33
2018-01-20T20:12:49.424Z,63.83
2018-01-20T20:14:55.937Z,478.37
2018-01-20T20:17:02.815Z,735.27
2018-01-20T20:19:08.952Z,603.10
2018-01-20T20:21:16.626Z,386.23
2018-01-20T20:23:29.366Z,337.27
2018-01-20T20:25:35.419Z,273.33
2018-01-20T20:27:41.259Z,258.13
2018-01-20T20:29:47.366Z,227.20
2018-01-20T20:32:13.973Z,206.63
2018-01-20T20:34:20.853Z,194.37
2018-01-20T20:36:26.712Z,178.70
2018-01-20T20:38:36.576Z,162.57
2018-01-20T20:40:46.816Z,157.80
2018-01-20T20:42:52.560Z,146.23
2018-01-20T20:44:58.519Z,135.67
2018-01-20T20:47:04.658Z,128.03
2018-01-20T20:49:10.394Z,120.63
2018-01-20T20:51:16.093Z,117.00
2018-01-20T20:53:24.258Z,104.03
2018-01-20T20:55:30.046Z,102.17
2018-01-20T20:57:35.994Z,93.80
2018-01-20T20:59:42.850Z,90.27
2018-01-20T21:01:49.146Z,77.97
2018-01-20T21:03:55.227Z,77.73
2018-01-20T21:06:01.276Z,74.03
2018-01-20T21:08:09.520Z,64.37
2018-01-20T21:10:15.773Z,494.57
2018-01-20T21:12:25.349Z,341.97
2018-01-20T21:14:31.953Z,230.97
2018-01-20T21:16:37.649Z,229.43
2018-01-20T21:18:44.251Z,246.93
2018-01-20T21:20:53.411Z,238.97
2018-01-20T21:22:59.796Z,230.60
2018-01-20T21:25:06.853Z,216.20
2018-01-20T21:27:12.922Z,201.57
2018-01-20T21:29:22.025Z,182.50
2018-01-20T21:31:28.494Z,169.67
2018-01-20T21:33:38.855Z,158.73
2018-01-20T21:35:49.303Z,153.90
2018-01-20T21:37:55.948Z,134.97
2018-01-20T21:40:05.173Z,129.83
2018-01-20T21:42:12.854Z,123.17
2018-01-20T21:44:19.314Z,343.47
2018-01-20T21:46:26.252Z,316.07
2018-01-20T21:48:32.032Z,329.27
2018-01-20T21:50:38.223Z,295.87
2018-01-20T21:52:44.673Z,278.93
2018-01-20T21:54:51.577Z,268.20
2018-01-20T21:56:57.578Z,255.90
2018-01-20T21:59:03.838Z,225.33
2018-01-20T22:01:09.518Z,210.13
2018-01-20T22:03:16.040Z,201.60
2018-01-20T22:05:22.576Z,185.90
2018-01-20T22:07:28.463Z,176.47
2018-01-20T22:09:35.527Z,160.30
2018-01-20T22:11:42.819Z,157.33
2018-01-20T22:13:51.246Z,144.30
2018-01-20T22:15:57.851Z,138.03
2018-01-20T22:18:04.842Z,125.87
2018-01-20T22:20:14.506Z,122.70
2018-01-20T22:22:21.989Z,108.30
2018-01-20T22:24:28.512Z,101.23
2018-01-20T22:26:35.458Z,100.23
2018-01-20T22:28:42.513Z,95.00
2018-01-20T22:30:48.539Z,263.70
2018-01-20T22:32:55.161Z,515.33
2018-01-20T22:35:02.753Z,446.90
2018-01-20T22:37:09.645Z,389.20
2018-01-20T22:39:15.653Z,356.53
2018-01-20T22:41:22.727Z,306.87
2018-01-20T22:43:28.525Z,292.47
2018-01-20T22:45:35.007Z,267.73
2018-01-20T22:47:41.276Z,254.97
2018-01-20T22:50:40.279Z,234.77
2018-01-20T22:52:56.064Z,215.70
2018-01-20T22:55:16.121Z,198.30
2018-01-20T22:57:37.414Z,187.53
2018-01-20T22:59:43.804Z,174.80
2018-01-20T23:01:53.127Z,158.60
2018-01-20T23:03:59.158Z,148.70
2018-01-20T23:06:06.846Z,143.60
2018-01-20T23:08:13.968Z,131.03
2018-01-20T23:10:20.837Z,125.20
2018-01-20T23:12:27.517Z,115.20
2018-01-20T23:14:34.569Z,107.50
2018-01-20T23:16:40.768Z,99.70
2018-01-20T23:18:46.955Z,95.90
2018-01-20T23:20:52.579Z,95.43
2018-01-20T23:22:58.341Z,86.40
2018-01-20T23:25:04.551Z,80.53
2018-01-20T23:27:10.986Z,79.70
2018-01-20T23:29:16.610Z,70.20
2018-01-20T23:31:22.776Z,66.87
2018-01-20T23:33:28.525Z,64.13
2018-01-20T23:35:34.391Z,60.87
2018-01-20T23:37:42.910Z,58.00
2018-01-20T23:39:49.340Z,53.67
2018-01-20T23:41:55.306Z,50.63
2018-01-20T23:44:01.302Z,44.30
2018-01-20T23:46:07.162Z,43.33
2018-01-20T23:48:12.983Z,39.93
2018-01-20T23:50:19.557Z,38.50
2018-01-20T23:52:25.294Z,37.60
2018-01-20T23:54:31.062Z,39.43
2018-01-20T23:56:37.139Z,37.30
2018-01-20T23:58:43.251Z,29.33
